Stone Cabin, Nevada Weather observations

Data are for observation ending at time listed.
 Day   Time    Ave.   Ave.  Ave.  Vector   Max.   Stn.    Total    Solar   Ave.  
  of    of     Air    Rel.  Wind   Wind    Wind   Baro.  Precip.   Rad.    Soil  
Year   Day     Temp.  Hum.  Speed  Dir.    Gust   Pres.                    Temp. 
2015   (PST)    F      %     mph   deg.    mph     mb.     in.     W/m2     F   
------------------------------------------------------------------------------
 116   18:00   52.7    24    5.1    16     14.7    822     0.00     145    56.2
 116   19:00   48.7    27    5.5    22     14.7    823     0.00      14    54.8
 116   20:00   46.0    30    7.5    26     14.6    823     0.00       0    53.4
 116   21:00   44.0    34    6.3    25     15.0    823     0.00       0    52.3
 116   22:00   42.4    38    5.0    24     11.3    824     0.00       0    51.3
 116   23:00  99999.0   99999  99999.0   99999    99999.0    99999    99999.00   99999    99999.0
 117    0:00   34.7    52    1.8   267      5.3    826     0.00       0    49.3
 117    1:00   33.0    55    1.6   321      5.9    826     0.00       0    48.3
 117    2:00   34.9    52    1.9   332      7.2    826     0.00       0    47.5
 117    3:00   34.8    52    2.3   296      6.9    826     0.00       0    46.9
 117    4:00   33.2    54    1.9   350      5.3    826     0.00       0    46.4
 117    5:00   35.0    47    1.8    22      6.9    826     0.00       1    45.8
 117    6:00   32.3    52    1.1   198      4.4    826     0.00      19    45.3
 117    7:00   39.4    40    2.3   316      7.2    827     0.00     225    45.1
 117    8:00   47.2    28    4.0     7      9.9    827     0.00     512    45.7
 117    9:00   51.5    21    5.4    29     12.6    827     0.00     714    47.8
 117   10:00   54.0    22    4.1   103      9.9    825     0.00     874    51.1
 117   11:00   57.4    19    3.9    88      8.4    824     0.00     983    55.4
 117   12:00   61.4    14    3.2    49      9.6    824     0.00    1025    60.0
 117   13:00   63.9    13    3.5    37     10.1    824     0.00    1000    62.4
 117   14:00   65.8    12    3.3    60      8.7    818     0.00     911    61.2
 117   15:00   66.7    13    4.6   108     11.5    817     0.00     767    62.2
 117   16:00   66.5    13    5.3   126     12.6    821     0.00     579    61.2
 117   17:00   65.6    13    4.6   120      9.9    820     0.00     371    59.6

Return to Stone Cabin, Nevada graphs page.


Western Regional Climate Center,wrcc@dri.edu